Towanda, Pennsylvania
Current Conditions -  °F | °C
As of 6:53 AM on Tuesday 27 Jan 2015 (Local Time) from KELM Reporting Station
Overcast Overcast  
Wind Chill: 17°   Ceiling: 7500
Heat Index: 17°   Visibility: 10mi
Dew Point: 11°   Wind: 0mph
Humidity: 77%   Direction: NA
Pressure: 29.85"   Gusts: NA
Location:  41.77°N, 76.44°W
Report Text: KELM 271153Z 00000KT 10SM OVC075 M08/M12 A2985 RMK AO2 SLP125 60000 70009 T10831117 11072 21083 51007
Loading
Personal Weather Stations






























Interactive Weather Map New forecast layout! Learn more

10-Day Weather Forecast

Advertisements
Track Severe Weather on mobile